TFM - Tactical Decision Aid
ID: Runway Winds: CIG/VIS Threshold:

KITH - Ithaca/Tompkins Rgnl, NY, US

Updated at: 1740 UTC 26 Oct 2021
Latest TAF at: 1703 UTC 26 Oct 2021

TAF Board

Time1656Z 26/18Z 26/19Z 26/20Z 26/21Z 26/22Z 26/23Z 27/00Z 27/01Z 27/02Z 27/03Z 27/04Z 27/05Z 27/06Z>>
Type OBS PRVL PRVL PRVL
  [TEMP]  
PRVL
  [TEMP]  
PRVL
  [TEMP]  
PRVL
  [TEMP]  
PRVL PRVL PRVL PRVL PRVL PRVL PRVL
VIS 1 1 1 1
  [2]  
1
  [2]  
1
  [2]  
1
  [2]  
5 5 5 5 5 5 5
CIG 2 2 2 2
  [5]  
2
  [5]  
2
  [5]  
2
  [5]  
11 11 11 11 11 11 11
Cover OVC OVC OVC OVC
  [OVC]  
OVC
  [OVC]  
OVC
  [OVC]  
OVC
  [OVC]  
OVC OVC OVC OVC OVC OVC OVC
FltCat LIFR LIFR LIFR LIFR
  [IFR]  
LIFR
  [IFR]  
LIFR
  [IFR]  
LIFR
  [IFR]  
MVFR MVFR MVFR MVFR MVFR MVFR MVFR
WX RA BR RA BR RA BR RA BR
  [RA BR]  
RA BR
  [RA BR]  
RA BR
  [RA BR]  
RA BR
  [RA BR]  
SHRA BR SHRA BR SHRA BR SHRA BR SHRA BR SHRA BR SHRA BR
WDir 320 320 320 320
[320]
320
[320]
320
[320]
320
[320]
350 350 350 350 350 350 350
WSpd 12 12 12 12
  [12]  
12
  [12]  
12
  [12]  
12
  [12]  
10 10 10 10 10 10 10
WGst -- -- -- --
  [--]  
--
  [--]  
--
  [--]  
--
  [--]  
-- -- -- -- -- -- --

TDA Impact Legend

  None Marginal Slight Moderate High
Visibility (sm) >5 3≤X≤5 2≤X<3 0.75≤X<2 <0.75
Ceiling (100 ft) >30 10≤X≤30 10≤X<10 3≤X<10 <3
Wind Speed (kt) <15 15≤X<25 25≤X<30 ≥30
Wind Gust (kt) <15 15≤X<25 25≤X<35 ≥35
Weather No Wx Reported VCTS -TS,-FZRA TS,FZRA +TS,+FZRA
TAF
KITH 261703Z 2617/2712 32012KT 1SM RA BR OVC002
  TEMPO 2620/2624 2SM RA BR OVC005
  FM270000 35010KT 5SM SHRA BR OVC011
  FM270700 34009G15KT 3SM BR OVC006


METAR
KITH 261656Z 32012KT 1SM R32/5000VP6000FT RA BR OVC002 09/09 A2955 RMK AO2 SLP006 P0022 T00940094
KITH 261556Z 33007KT 2SM RA BR BKN002 OVC011 11/11 A2957 RMK AO2 SLP014 P0013 T01110111
KITH 261456Z 03007KT 2SM RA BR OVC008 12/12 A2958 RMK AO2 SLP014 P0008 60024 T01170117 58005

Radar Display
Forecast Discussion